Time;durP1;ratioP1;P1;durP2;ratioP2;P2;SDS_P1;SDS_P2;PMS_P1;PMS_P2;Temp;Humidity;BMP_temperature;BMP_pressure;BME280_temperature;BME280_humidity;BME280_pressure;Samples;Min_cycle;Max_cycle;Signal;HPM_P1;HPM_P2
2023/08/16 00:01:51;;;;;;;;;;;22.50;91.50;;;;;;5119615;27;19920;-71
2023/08/16 00:04:17;;;;;;;;;;;22.40;91.50;;;;;;5097090;28;19938;-71
2023/08/16 00:06:42;;;;;;;;;;;22.40;91.50;;;;;;5107244;28;19939;-71
2023/08/16 00:09:08;;;;;;;;;;;22.40;91.60;;;;;;5109655;28;19937;-71
2023/08/16 00:11:34;;;;;;;;;;;22.40;91.60;;;;;;5116456;27;20399;-71
2023/08/16 00:13:59;;;;;;;;;;;22.40;91.60;;;;;;5109290;28;19908;-71
2023/08/16 00:16:25;;;;;;;;;;;22.40;91.60;;;;;;5108864;28;19911;-71
2023/08/16 00:18:50;;;;;;;;;;;22.30;91.70;;;;;;5109409;28;20323;-71
2023/08/16 00:21:16;;;;;;;;;;;22.30;91.70;;;;;;5108823;28;19912;-71
2023/08/16 00:23:41;;;;;;;;;;;22.30;91.70;;;;;;5107026;28;19915;-71
2023/08/16 00:26:07;;;;;;;;;;;22.30;91.70;;;;;;5102936;28;20006;-71
2023/08/16 00:28:32;;;;;;;;;;;22.30;91.60;;;;;;5108894;28;19911;-71
2023/08/16 00:30:58;;;;;;;;;;;22.20;91.80;;;;;;5107905;28;20352;-70
2023/08/16 00:33:23;;;;;;;;;;;22.20;91.80;;;;;;5111995;27;19915;-70
2023/08/16 00:35:51;;;;;;;;;;;22.20;91.70;;;;;;5108027;28;19941;-70
2023/08/16 00:38:16;;;;;;;;;;;22.20;91.80;;;;;;5107412;28;20370;-73
2023/08/16 00:40:46;;;;;;;;;;;22.20;91.90;;;;;;5108729;27;19923;-73
2023/08/16 00:43:12;;;;;;;;;;;22.10;91.80;;;;;;5108544;28;20383;-73
2023/08/16 00:45:37;;;;;;;;;;;22.10;91.80;;;;;;5108187;28;19915;-73
2023/08/16 00:48:03;;;;;;;;;;;22.10;91.90;;;;;;5108559;28;19920;-73
2023/08/16 00:50:28;;;;;;;;;;;22.10;91.90;;;;;;5107108;28;20288;-73
2023/08/16 00:52:54;;;;;;;;;;;22.10;91.90;;;;;;5113569;27;19915;-73
2023/08/16 00:55:20;;;;;;;;;;;22.00;91.90;;;;;;5113075;27;20376;-73
2023/08/16 00:57:46;;;;;;;;;;;22.00;92.00;;;;;;5108419;28;19912;-73
2023/08/16 01:00:12;;;;;;;;;;;22.00;91.90;;;;;;5107959;27;19937;-73
2023/08/16 01:02:38;;;;;;;;;;;21.90;91.90;;;;;;5108486;28;19998;-73
2023/08/16 01:05:04;;;;;;;;;;;21.90;92.00;;;;;;5100197;28;20327;-73
2023/08/16 01:07:29;;;;;;;;;;;21.90;92.00;;;;;;5103086;28;20388;-74
2023/08/16 01:09:55;;;;;;;;;;;21.90;91.90;;;;;;5109497;27;20002;-73
2023/08/16 01:12:23;;;;;;;;;;;21.80;92.30;;;;;;5107890;28;19915;-73
2023/08/16 01:14:52;;;;;;;;;;;21.80;92.00;;;;;;5122143;27;19947;-73
2023/08/16 01:17:19;;;;;;;;;;;21.80;92.00;;;;;;5128404;27;19946;-74
2023/08/16 01:19:45;;;;;;;;;;;21.80;92.00;;;;;;5128240;27;19912;-73
2023/08/16 01:22:19;;;;;;;;;;;21.80;92.10;;;;;;5128313;27;19912;-72
2023/08/16 01:24:58;;;;;;;;;;;21.80;92.20;;;;;;5117759;27;20602;-73
2023/08/16 01:27:24;;;;;;;;;;;21.70;92.20;;;;;;5125835;27;20264;-73
2023/08/16 01:29:52;;;;;;;;;;;21.70;92.20;;;;;;5119110;27;19912;-73
2023/08/16 01:32:18;;;;;;;;;;;21.60;92.10;;;;;;5101916;28;20077;-73
2023/08/16 01:34:43;;;;;;;;;;;21.70;92.20;;;;;;5099817;28;19996;-73
2023/08/16 01:37:09;;;;;;;;;;;21.60;92.20;;;;;;5107757;28;19984;-73
2023/08/16 01:39:34;;;;;;;;;;;21.60;92.30;;;;;;5108301;28;19912;-73
2023/08/16 01:42:01;;;;;;;;;;;21.60;92.30;;;;;;5107753;28;19923;-73
2023/08/16 01:44:27;;;;;;;;;;;21.50;92.20;;;;;;5108145;28;19914;-73
2023/08/16 01:46:53;;;;;;;;;;;21.50;92.30;;;;;;5108975;28;19919;-73
2023/08/16 01:49:19;;;;;;;;;;;21.50;92.40;;;;;;5108115;28;19912;-73
2023/08/16 01:51:44;;;;;;;;;;;21.50;92.40;;;;;;5107732;28;19911;-74
2023/08/16 01:54:10;;;;;;;;;;;21.50;92.40;;;;;;5101071;28;20338;-73
2023/08/16 01:56:36;;;;;;;;;;;21.40;92.40;;;;;;5087370;28;19946;-73
2023/08/16 01:59:01;;;;;;;;;;;21.40;92.40;;;;;;5112899;28;19947;-73
2023/08/16 02:01:27;;;;;;;;;;;21.40;92.50;;;;;;5126334;27;19954;-73
2023/08/16 02:03:53;;;;;;;;;;;21.40;92.60;;;;;;5092379;28;20108;-73
2023/08/16 02:06:19;;;;;;;;;;;21.30;92.60;;;;;;5107027;28;19969;-73
2023/08/16 02:08:44;;;;;;;;;;;21.30;92.70;;;;;;5107714;28;20346;-73
2023/08/16 02:11:10;;;;;;;;;;;21.30;92.70;;;;;;5107613;28;19998;-73
2023/08/16 02:13:35;;;;;;;;;;;21.30;92.60;;;;;;5105227;28;20029;-73
2023/08/16 02:16:02;;;;;;;;;;;21.20;92.60;;;;;;5116894;28;19915;-74
2023/08/16 02:18:28;;;;;;;;;;;21.20;92.60;;;;;;5108023;28;20051;-73
2023/08/16 02:20:53;;;;;;;;;;;21.20;92.80;;;;;;5107784;27;20391;-73
2023/08/16 02:23:19;;;;;;;;;;;21.20;92.80;;;;;;5108275;28;19919;-73
2023/08/16 02:25:44;;;;;;;;;;;21.10;92.80;;;;;;5107528;28;19953;-72
2023/08/16 02:28:10;;;;;;;;;;;21.10;92.90;;;;;;5107653;28;19933;-74
2023/08/16 02:30:35;;;;;;;;;;;21.10;92.90;;;;;;5109359;28;19920;-73
2023/08/16 02:33:01;;;;;;;;;;;21.10;92.90;;;;;;5113982;27;19953;-73
2023/08/16 02:35:26;;;;;;;;;;;21.00;92.90;;;;;;5125045;27;19923;-73
2023/08/16 02:37:52;;;;;;;;;;;21.00;92.80;;;;;;5131576;27;19923;-73
2023/08/16 02:40:17;;;;;;;;;;;21.00;92.80;;;;;;5131798;27;19917;-73
2023/08/16 02:42:43;;;;;;;;;;;21.00;92.90;;;;;;5121271;27;19916;-73
2023/08/16 02:45:09;;;;;;;;;;;21.00;93.10;;;;;;5111088;28;19911;-73
2023/08/16 02:47:34;;;;;;;;;;;21.00;92.90;;;;;;5112297;27;20006;-73
2023/08/16 02:49:59;;;;;;;;;;;21.00;92.90;;;;;;5111235;28;19908;-73
2023/08/16 02:52:25;;;;;;;;;;;20.90;92.80;;;;;;5111096;28;19964;-73
2023/08/16 02:54:51;;;;;;;;;;;20.90;92.90;;;;;;5098426;28;20292;-72
2023/08/16 02:57:18;;;;;;;;;;;20.90;93.00;;;;;;5090179;28;19912;-72
2023/08/16 02:59:46;;;;;;;;;;;20.90;93.10;;;;;;5089168;28;20364;-73
2023/08/16 03:02:12;;;;;;;;;;;20.80;93.10;;;;;;5090556;28;19912;-73
2023/08/16 03:04:39;;;;;;;;;;;20.90;93.10;;;;;;5107675;27;19951;-73
2023/08/16 03:07:08;;;;;;;;;;;20.80;93.00;;;;;;5110289;27;19915;-73
2023/08/16 03:09:34;;;;;;;;;;;20.80;93.00;;;;;;5110378;28;19915;-74
2023/08/16 03:11:59;;;;;;;;;;;20.80;93.00;;;;;;5119956;27;19908;-73
2023/08/16 03:14:25;;;;;;;;;;;20.80;93.10;;;;;;5109543;28;19958;-73
2023/08/16 03:16:50;;;;;;;;;;;20.70;93.30;;;;;;5110438;27;19998;-73
2023/08/16 03:19:16;;;;;;;;;;;20.70;93.30;;;;;;5110950;28;19911;-73
2023/08/16 03:21:41;;;;;;;;;;;20.70;93.40;;;;;;5130005;27;20287;-73
2023/08/16 03:24:07;;;;;;;;;;;20.70;93.40;;;;;;5125917;27;19977;-73
2023/08/16 03:26:32;;;;;;;;;;;20.70;93.30;;;;;;5110436;28;20346;-73
2023/08/16 03:28:58;;;;;;;;;;;20.60;93.30;;;;;;5110258;28;19925;-73
2023/08/16 03:31:23;;;;;;;;;;;20.70;93.30;;;;;;5109909;28;19912;-73
2023/08/16 03:33:49;;;;;;;;;;;20.60;93.20;;;;;;5110303;28;19907;-73
2023/08/16 03:36:14;;;;;;;;;;;20.60;93.70;;;;;;5110140;27;20296;-73
2023/08/16 03:38:41;;;;;;;;;;;20.60;93.30;;;;;;5121863;27;19915;-73
2023/08/16 03:41:07;;;;;;;;;;;20.60;93.30;;;;;;5130634;27;19985;-73
2023/08/16 03:43:36;;;;;;;;;;;20.50;93.50;;;;;;5113060;27;19911;-73
2023/08/16 03:46:05;;;;;;;;;;;20.50;93.50;;;;;;5109295;28;19912;-73
2023/08/16 03:48:31;;;;;;;;;;;20.50;93.50;;;;;;5110233;28;19919;-73
2023/08/16 03:50:57;;;;;;;;;;;20.50;93.40;;;;;;5109752;28;19908;-73
2023/08/16 03:53:22;;;;;;;;;;;20.50;93.50;;;;;;5127020;27;19915;-72
2023/08/16 03:55:55;;;;;;;;;;;20.50;93.40;;;;;;5110705;27;20031;-73
2023/08/16 03:58:20;;;;;;;;;;;20.50;93.30;;;;;;5110102;28;20341;-72
2023/08/16 04:00:52;;;;;;;;;;;20.50;93.50;;;;;;5109849;28;19912;-73
2023/08/16 04:03:18;;;;;;;;;;;20.50;93.40;;;;;;5109430;28;19988;-73
2023/08/16 04:05:44;;;;;;;;;;;20.50;93.40;;;;;;5096200;28;19915;-73
2023/08/16 04:08:09;;;;;;;;;;;20.50;93.30;;;;;;5112853;27;20006;-73
2023/08/16 04:10:35;;;;;;;;;;;20.50;93.40;;;;;;5130289;27;19907;-73
2023/08/16 04:13:01;;;;;;;;;;;20.40;93.30;;;;;;5116921;27;20016;-73
2023/08/16 04:15:26;;;;;;;;;;;20.40;93.30;;;;;;5107572;28;19912;-73
2023/08/16 04:17:54;;;;;;;;;;;20.50;93.20;;;;;;5109655;28;20027;-73
2023/08/16 04:20:19;;;;;;;;;;;20.40;93.30;;;;;;5109196;28;20028;-73
2023/08/16 04:22:45;;;;;;;;;;;20.40;93.40;;;;;;5124179;27;19951;-73
2023/08/16 04:25:10;;;;;;;;;;;20.40;93.40;;;;;;5115158;27;19947;-73
2023/08/16 04:27:36;;;;;;;;;;;20.40;93.40;;;;;;5107136;28;19919;-73
2023/08/16 04:30:02;;;;;;;;;;;20.40;93.40;;;;;;5108314;27;19912;-73
2023/08/16 04:32:27;;;;;;;;;;;20.40;93.40;;;;;;5107735;28;19911;-73
2023/08/16 04:34:53;;;;;;;;;;;20.40;93.40;;;;;;5109393;27;19926;-73
2023/08/16 04:37:18;;;;;;;;;;;20.40;93.20;;;;;;5108298;28;19920;-73
2023/08/16 04:39:44;;;;;;;;;;;20.40;93.50;;;;;;5108425;28;19922;-73
2023/08/16 04:42:09;;;;;;;;;;;20.40;93.40;;;;;;5108322;28;19914;-72
2023/08/16 04:44:35;;;;;;;;;;;20.40;93.50;;;;;;5108145;28;19912;-73
2023/08/16 04:47:00;;;;;;;;;;;20.40;93.40;;;;;;5108373;28;19915;-73
2023/08/16 04:49:27;;;;;;;;;;;20.40;93.40;;;;;;5108534;28;20318;-72
2023/08/16 04:51:53;;;;;;;;;;;20.40;93.50;;;;;;5108393;28;19958;-73
2023/08/16 04:54:19;;;;;;;;;;;20.40;93.40;;;;;;5108327;28;20361;-73
2023/08/16 04:56:44;;;;;;;;;;;20.40;93.40;;;;;;5107916;28;19922;-73
2023/08/16 04:59:10;;;;;;;;;;;20.40;93.50;;;;;;5107462;28;19959;-72
2023/08/16 05:01:36;;;;;;;;;;;20.40;93.50;;;;;;5106540;28;20018;-73
2023/08/16 05:04:03;;;;;;;;;;;20.40;93.50;;;;;;5094417;28;19912;-73
2023/08/16 05:06:30;;;;;;;;;;;20.40;93.60;;;;;;5108323;27;19919;-73
2023/08/16 05:08:55;;;;;;;;;;;20.40;93.60;;;;;;5108668;28;19912;-72
2023/08/16 05:11:20;;;;;;;;;;;20.40;93.50;;;;;;5108657;28;19918;-73
2023/08/16 05:13:46;;;;;;;;;;;20.30;93.50;;;;;;5108977;28;19916;-73
2023/08/16 05:16:11;;;;;;;;;;;20.30;93.50;;;;;;5125688;27;20588;-73
2023/08/16 05:18:37;;;;;;;;;;;20.30;93.50;;;;;;5129166;27;19915;-73
2023/08/16 05:21:03;;;;;;;;;;;20.40;93.60;;;;;;5128742;27;20002;-72
2023/08/16 05:23:28;;;;;;;;;;;20.30;93.60;;;;;;5127262;27;20523;-73
2023/08/16 05:25:54;;;;;;;;;;;20.30;93.60;;;;;;5107992;27;19912;-73
2023/08/16 05:28:19;;;;;;;;;;;20.40;93.60;;;;;;5108336;28;19916;-72
2023/08/16 05:30:45;;;;;;;;;;;20.40;93.50;;;;;;5107665;28;19912;-73
2023/08/16 05:33:10;;;;;;;;;;;20.40;93.60;;;;;;5108309;28;19912;-73
2023/08/16 05:35:36;;;;;;;;;;;20.40;93.60;;;;;;5107899;28;19912;-72
2023/08/16 05:38:04;;;;;;;;;;;20.40;93.60;;;;;;5108415;28;19920;-72
2023/08/16 05:40:29;;;;;;;;;;;20.40;93.50;;;;;;5106746;28;19964;-73
2023/08/16 05:42:55;;;;;;;;;;;20.40;93.50;;;;;;5108461;28;19920;-73
2023/08/16 05:45:22;;;;;;;;;;;20.40;93.60;;;;;;5107919;28;19977;-73
2023/08/16 05:47:48;;;;;;;;;;;20.40;93.50;;;;;;5108201;28;19924;-73
2023/08/16 05:50:13;;;;;;;;;;;20.40;93.60;;;;;;5107893;28;20399;-72
2023/08/16 05:52:39;;;;;;;;;;;20.40;93.60;;;;;;5108160;28;19918;-73
2023/08/16 05:55:04;;;;;;;;;;;20.40;93.50;;;;;;5120670;28;20265;-73
2023/08/16 05:57:30;;;;;;;;;;;20.40;93.50;;;;;;5128295;27;19974;-72
2023/08/16 05:59:56;;;;;;;;;;;20.40;93.50;;;;;;5128781;27;19960;-73
2023/08/16 06:02:23;;;;;;;;;;;20.40;93.50;;;;;;5111038;27;19943;-73
2023/08/16 06:04:49;;;;;;;;;;;20.40;93.60;;;;;;5098585;28;19919;-73
2023/08/16 06:07:16;;;;;;;;;;;20.40;93.50;;;;;;5107401;28;19916;-73
2023/08/16 06:09:42;;;;;;;;;;;20.40;93.50;;;;;;5110530;28;19912;-73
2023/08/16 06:12:07;;;;;;;;;;;20.40;93.40;;;;;;5113078;27;19926;-72
2023/08/16 06:14:33;;;;;;;;;;;20.40;93.50;;;;;;5110342;28;19923;-73
2023/08/16 06:16:58;;;;;;;;;;;20.40;93.40;;;;;;5111123;28;19920;-73
2023/08/16 06:19:24;;;;;;;;;;;20.40;93.50;;;;;;5110785;28;19907;-73
2023/08/16 06:21:50;;;;;;;;;;;20.40;93.50;;;;;;5111912;28;19908;-73
2023/08/16 06:24:16;;;;;;;;;;;20.40;93.50;;;;;;5105399;28;20344;-73
2023/08/16 06:26:41;;;;;;;;;;;20.40;93.60;;;;;;5102471;27;20044;-73
2023/08/16 06:29:07;;;;;;;;;;;20.40;93.60;;;;;;5111146;27;19916;-73
2023/08/16 06:31:32;;;;;;;;;;;20.40;93.60;;;;;;5110964;28;19911;-73
2023/08/16 06:34:00;;;;;;;;;;;20.40;93.50;;;;;;5111582;28;19911;-73
2023/08/16 06:36:26;;;;;;;;;;;20.40;93.50;;;;;;5111204;28;20006;-73
2023/08/16 06:38:52;;;;;;;;;;;20.40;93.50;;;;;;5111433;28;19960;-73
2023/08/16 06:41:17;;;;;;;;;;;20.40;93.50;;;;;;5111650;27;20004;-73
2023/08/16 06:43:43;;;;;;;;;;;20.50;93.60;;;;;;5110992;28;20388;-73
2023/08/16 06:46:09;;;;;;;;;;;20.50;93.50;;;;;;5110846;28;19930;-73
2023/08/16 06:48:35;;;;;;;;;;;20.50;93.50;;;;;;5109933;28;19908;-72
2023/08/16 06:51:00;;;;;;;;;;;20.50;93.50;;;;;;5107330;28;20395;-73
2023/08/16 06:53:27;;;;;;;;;;;20.50;93.50;;;;;;5110948;28;19915;-73
2023/08/16 06:55:53;;;;;;;;;;;20.50;93.50;;;;;;5110607;28;20673;-72
2023/08/16 06:58:18;;;;;;;;;;;20.50;93.50;;;;;;5122215;27;19916;-73
2023/08/16 07:00:48;;;;;;;;;;;20.60;93.50;;;;;;5131303;27;19911;-73
2023/08/16 07:03:14;;;;;;;;;;;20.60;93.50;;;;;;5098206;27;19913;-73
2023/08/16 07:05:39;;;;;;;;;;;20.60;93.50;;;;;;5109756;28;19908;-72
2023/08/16 07:08:05;;;;;;;;;;;20.60;93.50;;;;;;5110582;28;19953;-73
2023/08/16 07:10:30;;;;;;;;;;;20.70;93.50;;;;;;5111083;28;19926;-73
2023/08/16 07:12:56;;;;;;;;;;;20.70;93.40;;;;;;5110446;28;19919;-73
2023/08/16 07:15:22;;;;;;;;;;;20.70;93.50;;;;;;5118722;27;19915;-73
2023/08/16 07:17:47;;;;;;;;;;;20.60;93.70;;;;;;5110638;28;19916;-72
2023/08/16 07:20:13;;;;;;;;;;;20.70;94.00;;;;;;5110167;28;20293;-73
2023/08/16 07:22:38;;;;;;;;;;;20.70;94.30;;;;;;5110441;28;19919;-72
2023/08/16 07:25:08;;;;;;;;;;;20.70;94.40;;;;;;5111378;27;20398;-73
2023/08/16 07:27:33;;;;;;;;;;;20.70;94.50;;;;;;5121865;27;19931;-73
2023/08/16 07:29:59;;;;;;;;;;;20.80;94.50;;;;;;5120007;27;19912;-73
2023/08/16 07:32:24;;;;;;;;;;;20.80;94.60;;;;;;5117063;27;19907;-73
2023/08/16 07:34:50;;;;;;;;;;;20.80;94.70;;;;;;5110161;28;20010;-73
2023/08/16 07:37:17;;;;;;;;;;;20.80;95.30;;;;;;5109935;28;20696;-74
2023/08/16 07:39:42;;;;;;;;;;;20.80;95.30;;;;;;5108712;28;19919;-74
2023/08/16 07:42:08;;;;;;;;;;;20.90;95.60;;;;;;5109799;28;19912;-72
2023/08/16 07:44:34;;;;;;;;;;;20.90;95.30;;;;;;5109930;28;19920;-73
2023/08/16 07:47:00;;;;;;;;;;;20.90;95.40;;;;;;5110896;27;19930;-73
2023/08/16 07:49:25;;;;;;;;;;;21.00;95.40;;;;;;5109883;28;19912;-72
2023/08/16 07:51:51;;;;;;;;;;;21.00;95.90;;;;;;5109909;28;20277;-73
2023/08/16 07:54:16;;;;;;;;;;;21.00;95.90;;;;;;5125416;27;19916;-73
2023/08/16 07:56:42;;;;;;;;;;;21.10;96.10;;;;;;5130237;27;20430;-73
2023/08/16 07:59:07;;;;;;;;;;;21.10;95.80;;;;;;5130881;27;19915;-73
2023/08/16 08:01:34;;;;;;;;;;;21.20;96.00;;;;;;5126503;27;20261;-73
2023/08/16 08:04:00;;;;;;;;;;;21.20;96.10;;;;;;5093876;28;19987;-73
2023/08/16 08:06:25;;;;;;;;;;;21.20;96.10;;;;;;5107479;28;20038;-73
2023/08/16 08:08:51;;;;;;;;;;;21.20;96.10;;;;;;5120057;27;19934;-73
2023/08/16 08:11:16;;;;;;;;;;;21.30;96.30;;;;;;5130243;27;19998;-73
2023/08/16 08:13:42;;;;;;;;;;;21.30;96.30;;;;;;5108005;27;20315;-73
2023/08/16 08:16:08;;;;;;;;;;;21.30;96.40;;;;;;5109104;28;20010;-73
2023/08/16 08:18:34;;;;;;;;;;;21.30;96.30;;;;;;5109343;28;19943;-74
2023/08/16 08:20:59;;;;;;;;;;;21.30;96.40;;;;;;5109132;28;19907;-73
2023/08/16 08:23:25;;;;;;;;;;;21.30;96.40;;;;;;5109588;28;19912;-74
2023/08/16 08:25:51;;;;;;;;;;;21.40;96.40;;;;;;5123139;27;19966;-73
2023/08/16 08:28:18;;;;;;;;;;;21.40;96.40;;;;;;5129792;27;19955;-73
2023/08/16 08:30:44;;;;;;;;;;;21.40;96.40;;;;;;5112065;27;20002;-74
2023/08/16 08:33:10;;;;;;;;;;;21.50;96.40;;;;;;5108432;28;19957;-74
2023/08/16 08:35:36;;;;;;;;;;;21.60;96.30;;;;;;5108551;28;20646;-73
2023/08/16 08:38:01;;;;;;;;;;;21.60;96.20;;;;;;5109190;28;19919;-73
2023/08/16 08:40:30;;;;;;;;;;;21.70;96.00;;;;;;5116888;27;19933;-73
2023/08/16 08:42:57;;;;;;;;;;;21.70;96.10;;;;;;5108831;28;19934;-71
2023/08/16 08:45:23;;;;;;;;;;;21.80;96.20;;;;;;5108758;28;19912;-73
2023/08/16 08:47:49;;;;;;;;;;;21.80;96.10;;;;;;5108939;28;19922;-73
2023/08/16 08:50:14;;;;;;;;;;;21.80;96.40;;;;;;5108755;28;20317;-73
2023/08/16 08:52:41;;;;;;;;;;;21.80;96.00;;;;;;5108897;28;19954;-72
2023/08/16 08:55:06;;;;;;;;;;;21.80;96.00;;;;;;5108620;28;20394;-72
2023/08/16 08:57:33;;;;;;;;;;;21.80;95.90;;;;;;5109725;27;19915;-72
2023/08/16 09:00:00;;;;;;;;;;;21.80;96.00;;;;;;5108673;28;19912;-73
2023/08/16 09:02:28;;;;;;;;;;;21.80;95.90;;;;;;5108740;28;19912;-72
2023/08/16 09:04:55;;;;;;;;;;;21.80;95.80;;;;;;5108105;28;19911;-72
2023/08/16 09:07:21;;;;;;;;;;;21.80;95.60;;;;;;5108085;28;19915;-72
2023/08/16 09:09:49;;;;;;;;;;;21.80;95.60;;;;;;5108659;28;19916;-71
2023/08/16 09:12:14;;;;;;;;;;;21.80;95.40;;;;;;5108426;28;19919;-71
2023/08/16 09:14:40;;;;;;;;;;;21.80;95.80;;;;;;5121224;27;20356;-71
2023/08/16 09:17:05;;;;;;;;;;;21.90;95.90;;;;;;5128745;27;20435;-70
2023/08/16 09:19:31;;;;;;;;;;;21.90;95.90;;;;;;5128624;27;19911;-71
2023/08/16 09:21:56;;;;;;;;;;;21.90;95.80;;;;;;5129012;27;19918;-71
2023/08/16 09:24:26;;;;;;;;;;;21.90;95.90;;;;;;5117813;27;20520;-70
2023/08/16 09:26:52;;;;;;;;;;;21.90;96.00;;;;;;5108020;28;19919;-71
2023/08/16 09:29:18;;;;;;;;;;;21.90;95.90;;;;;;5107592;28;20519;-70
2023/08/16 09:31:45;;;;;;;;;;;21.90;95.90;;;;;;5110624;28;19916;-70
2023/08/16 09:34:12;;;;;;;;;;;21.90;95.90;;;;;;5107064;28;19931;-70
2023/08/16 09:36:38;;;;;;;;;;;21.90;95.80;;;;;;5107468;28;19946;-70
2023/08/16 09:39:08;;;;;;;;;;;21.90;95.70;;;;;;5108310;28;19912;-71
2023/08/16 09:41:34;;;;;;;;;;;22.00;95.70;;;;;;5108276;28;19961;-71
2023/08/16 09:44:04;;;;;;;;;;;22.00;95.80;;;;;;5110780;28;19916;-70
2023/08/16 09:46:30;;;;;;;;;;;22.00;95.90;;;;;;5118670;27;19915;-70
2023/08/16 09:49:06;;;;;;;;;;;22.00;96.00;;;;;;5132399;27;20299;-70
2023/08/16 09:51:33;;;;;;;;;;;22.00;95.90;;;;;;5132782;27;19964;-70
2023/08/16 09:54:00;;;;;;;;;;;22.00;96.10;;;;;;5128299;27;20002;-70
2023/08/16 09:56:26;;;;;;;;;;;22.00;95.80;;;;;;5117761;27;19953;-70
2023/08/16 09:58:52;;;;;;;;;;;22.00;95.90;;;;;;5132401;27;20386;-70
2023/08/16 10:01:18;;;;;;;;;;;22.10;95.90;;;;;;5132287;27;19950;-71
2023/08/16 10:03:45;;;;;;;;;;;22.10;95.80;;;;;;5123118;27;19916;-70
2023/08/16 10:06:11;;;;;;;;;;;22.20;95.80;;;;;;5098804;28;19919;-70
2023/08/16 10:08:37;;;;;;;;;;;22.10;96.20;;;;;;5112102;27;19911;-70
2023/08/16 10:11:03;;;;;;;;;;;22.20;96.10;;;;;;5112082;28;19915;-70
2023/08/16 10:13:29;;;;;;;;;;;22.20;96.10;;;;;;5112180;28;19934;-70
2023/08/16 10:15:54;;;;;;;;;;;22.20;96.30;;;;;;5110255;28;19919;-70
2023/08/16 10:18:21;;;;;;;;;;;22.20;96.20;;;;;;5112325;27;19914;-70
2023/08/16 10:20:46;;;;;;;;;;;22.20;96.20;;;;;;5132393;27;20650;-70
2023/08/16 10:23:14;;;;;;;;;;;22.20;96.00;;;;;;5131150;27;20002;-70
2023/08/16 10:25:46;;;;;;;;;;;22.20;95.90;;;;;;5113083;27;20307;-70
2023/08/16 10:28:14;;;;;;;;;;;22.20;95.80;;;;;;5110196;28;19916;-70
2023/08/16 10:30:40;;;;;;;;;;;22.20;95.70;;;;;;5110747;28;20060;-70
2023/08/16 10:33:09;;;;;;;;;;;22.20;95.70;;;;;;5111347;27;19912;-70
2023/08/16 10:35:35;;;;;;;;;;;22.20;95.70;;;;;;5111282;27;19916;-70
2023/08/16 10:38:01;;;;;;;;;;;22.20;95.70;;;;;;5111565;27;19915;-70
2023/08/16 10:40:27;;;;;;;;;;;22.20;95.90;;;;;;5111544;28;20002;-70
2023/08/16 10:42:55;;;;;;;;;;;22.20;95.70;;;;;;5111234;28;20593;-70
2023/08/16 10:45:25;;;;;;;;;;;22.20;95.80;;;;;;5110996;28;19946;-70
2023/08/16 10:47:51;;;;;;;;;;;22.20;95.80;;;;;;5111164;28;19915;-70
2023/08/16 10:50:16;;;;;;;;;;;22.20;95.80;;;;;;5112809;27;19912;-70
2023/08/16 10:52:42;;;;;;;;;;;22.20;95.90;;;;;;5131743;27;19907;-70
2023/08/16 10:55:07;;;;;;;;;;;22.20;95.90;;;;;;5116889;27;19998;-70
2023/08/16 10:57:34;;;;;;;;;;;22.20;95.90;;;;;;5109635;28;19998;-70
2023/08/16 11:00:05;;;;;;;;;;;22.20;95.80;;;;;;5110943;28;19908;-70
2023/08/16 11:02:31;;;;;;;;;;;22.20;95.70;;;;;;5111252;28;19912;-70
2023/08/16 11:04:58;;;;;;;;;;;22.20;95.70;;;;;;5110662;27;20447;-70
2023/08/16 11:07:23;;;;;;;;;;;22.20;95.60;;;;;;5110700;28;19965;-71
2023/08/16 11:09:49;;;;;;;;;;;22.20;95.50;;;;;;5110980;27;19954;-70
2023/08/16 11:12:16;;;;;;;;;;;22.20;95.50;;;;;;5109130;28;20028;-70
2023/08/16 11:14:45;;;;;;;;;;;22.20;95.50;;;;;;5110794;28;19950;-71
2023/08/16 11:17:15;;;;;;;;;;;22.20;95.70;;;;;;5109043;28;20576;-71
2023/08/16 11:19:40;;;;;;;;;;;22.30;95.80;;;;;;5110416;28;19933;-70
2023/08/16 11:22:06;;;;;;;;;;;22.30;95.60;;;;;;5123865;27;19915;-71
2023/08/16 11:24:33;;;;;;;;;;;22.20;95.70;;;;;;5122022;27;19911;-71
2023/08/16 11:26:58;;;;;;;;;;;22.20;95.60;;;;;;5110278;28;20347;-71
2023/08/16 11:29:24;;;;;;;;;;;22.30;95.60;;;;;;5109610;28;19947;-70
2023/08/16 11:31:54;;;;;;;;;;;22.20;95.40;;;;;;5108424;28;20027;-71
2023/08/16 11:34:20;;;;;;;;;;;22.30;95.40;;;;;;5109483;27;19907;-71
2023/08/16 11:36:45;;;;;;;;;;;22.30;95.60;;;;;;5099239;27;19926;-70
2023/08/16 11:39:11;;;;;;;;;;;22.30;95.60;;;;;;5110371;27;19955;-70
2023/08/16 11:41:36;;;;;;;;;;;22.30;95.70;;;;;;5102371;28;20548;-70
2023/08/16 11:44:03;;;;;;;;;;;22.30;95.50;;;;;;5110097;28;19953;-71
2023/08/16 11:46:38;;;;;;;;;;;22.40;95.80;;;;;;5109749;28;19911;-71
2023/08/16 11:49:04;;;;;;;;;;;22.40;95.80;;;;;;5109987;28;19951;-71
2023/08/16 11:51:29;;;;;;;;;;;22.40;95.90;;;;;;5109794;28;19958;-71
2023/08/16 11:53:55;;;;;;;;;;;22.40;96.00;;;;;;5112848;27;19965;-70
2023/08/16 11:56:26;;;;;;;;;;;22.50;96.00;;;;;;5109828;28;19944;-70
2023/08/16 11:58:52;;;;;;;;;;;22.50;96.00;;;;;;5109999;28;19908;-71
2023/08/16 12:01:21;;;;;;;;;;;22.60;96.00;;;;;;5109428;28;19920;-71
2023/08/16 12:03:47;;;;;;;;;;;22.60;96.00;;;;;;5109547;28;19919;-71
2023/08/16 12:06:13;;;;;;;;;;;22.60;95.70;;;;;;5107789;28;19912;-71
2023/08/16 12:08:48;;;;;;;;;;;22.60;95.70;;;;;;5109416;28;19912;-71
2023/08/16 12:11:14;;;;;;;;;;;22.60;95.60;;;;;;5126493;27;19936;-71
2023/08/16 12:13:39;;;;;;;;;;;22.70;95.50;;;;;;5111209;27;19907;-71
2023/08/16 12:16:05;;;;;;;;;;;22.60;95.50;;;;;;5109154;28;20050;-71
2023/08/16 12:18:30;;;;;;;;;;;22.60;95.40;;;;;;5108159;28;20458;-70
2023/08/16 12:20:56;;;;;;;;;;;22.70;95.40;;;;;;5109019;28;19911;-71
2023/08/16 12:23:22;;;;;;;;;;;22.70;95.70;;;;;;5106420;28;19912;-71
2023/08/16 12:25:47;;;;;;;;;;;22.70;95.70;;;;;;5103114;27;19949;-71
2023/08/16 12:28:13;;;;;;;;;;;22.80;95.70;;;;;;5100647;28;19915;-70
2023/08/16 12:30:38;;;;;;;;;;;22.80;95.60;;;;;;5107423;28;19912;-71
2023/08/16 12:33:04;;;;;;;;;;;22.80;95.60;;;;;;5107702;28;19950;-70
2023/08/16 12:35:30;;;;;;;;;;;22.90;95.40;;;;;;5105641;28;19908;-70
2023/08/16 12:37:56;;;;;;;;;;;23.10;95.40;;;;;;5108138;28;19912;-71
2023/08/16 12:40:26;;;;;;;;;;;23.10;95.20;;;;;;5108177;28;19915;-70
2023/08/16 12:42:52;;;;;;;;;;;23.10;95.10;;;;;;5109032;27;19912;-71
2023/08/16 12:45:17;;;;;;;;;;;23.20;95.20;;;;;;5107974;28;20562;-71
2023/08/16 12:47:43;;;;;;;;;;;23.20;95.10;;;;;;5106642;28;19920;-71
2023/08/16 12:50:08;;;;;;;;;;;23.20;95.00;;;;;;5106034;28;20068;-71
2023/08/16 12:52:34;;;;;;;;;;;23.20;95.00;;;;;;5109023;27;20360;-71
2023/08/16 12:55:00;;;;;;;;;;;23.30;95.00;;;;;;5094870;28;19908;-72
2023/08/16 12:57:25;;;;;;;;;;;23.30;95.30;;;;;;5087286;28;20631;-71
2023/08/16 12:59:51;;;;;;;;;;;23.30;95.00;;;;;;5086341;28;19913;-70
2023/08/16 13:02:16;;;;;;;;;;;23.30;94.90;;;;;;5087096;28;19919;-71
2023/08/16 13:04:42;;;;;;;;;;;23.30;94.90;;;;;;5094850;28;19912;-71
2023/08/16 13:07:07;;;;;;;;;;;23.30;94.80;;;;;;5113036;27;19924;-71
2023/08/16 13:09:33;;;;;;;;;;;23.40;94.80;;;;;;5106834;28;20483;-71
2023/08/16 13:11:58;;;;;;;;;;;23.40;94.80;;;;;;5108131;28;19922;-71
2023/08/16 13:14:24;;;;;;;;;;;23.40;94.80;;;;;;5108133;28;19915;-71
2023/08/16 13:16:50;;;;;;;;;;;23.40;94.60;;;;;;5106763;28;19911;-71
2023/08/16 13:19:15;;;;;;;;;;;23.40;94.60;;;;;;5109413;28;19922;-70
2023/08/16 13:21:41;;;;;;;;;;;23.50;94.60;;;;;;5112675;27;19915;-70
2023/08/16 13:24:11;;;;;;;;;;;23.50;94.50;;;;;;5114359;27;19915;-70
2023/08/16 13:26:40;;;;;;;;;;;23.60;94.50;;;;;;5107174;28;19919;-71
2023/08/16 13:29:08;;;;;;;;;;;23.60;94.50;;;;;;5107200;28;20822;-70
2023/08/16 13:31:33;;;;;;;;;;;23.60;94.40;;;;;;5101992;28;20646;-71
2023/08/16 13:33:59;;;;;;;;;;;23.60;94.50;;;;;;5105857;28;19919;-71
2023/08/16 13:36:25;;;;;;;;;;;23.60;94.40;;;;;;5107377;28;19919;-71
2023/08/16 13:38:50;;;;;;;;;;;23.70;94.40;;;;;;5127374;28;20368;-71
2023/08/16 13:41:16;;;;;;;;;;;23.70;94.40;;;;;;5114644;27;19918;-71
2023/08/16 13:43:41;;;;;;;;;;;23.70;94.50;;;;;;5107845;28;19918;-71
2023/08/16 13:46:07;;;;;;;;;;;23.60;94.50;;;;;;5107636;28;19926;-71
2023/08/16 13:48:33;;;;;;;;;;;23.60;94.50;;;;;;5106652;28;19920;-71
2023/08/16 13:50:59;;;;;;;;;;;23.70;94.40;;;;;;5107967;28;19961;-71
2023/08/16 13:53:24;;;;;;;;;;;23.70;94.40;;;;;;5109351;28;19977;-71
2023/08/16 13:55:50;;;;;;;;;;;23.70;94.30;;;;;;5088060;28;19943;-71
2023/08/16 13:58:15;;;;;;;;;;;23.70;94.30;;;;;;5087511;28;19926;-72
2023/08/16 14:00:41;;;;;;;;;;;23.70;94.40;;;;;;5087456;28;20256;-72
2023/08/16 14:03:06;;;;;;;;;;;23.70;94.10;;;;;;5087655;28;19916;-72
2023/08/16 14:05:32;;;;;;;;;;;23.80;94.00;;;;;;5105785;28;19947;-72
2023/08/16 14:07:57;;;;;;;;;;;23.80;94.10;;;;;;5107438;28;20407;-73
2023/08/16 14:10:23;;;;;;;;;;;23.80;94.10;;;;;;5119535;28;19916;-72